Time;durP1;ratioP1;P1;durP2;ratioP2;P2;SDS_P1;SDS_P2;PMS_P1;PMS_P2;Temp;Humidity;BMP_temperature;BMP_pressure;BME280_temperature;BME280_humidity;BME280_pressure;Samples;Min_cycle;Max_cycle;Signal;HPM_P1;HPM_P2
2023/02/22 00:01:49;;;;;;;;;20.75;17.50;;;;;3.57;89.89;98418.94;4893318;28;102401;-70
2023/02/22 00:04:19;;;;;;;;;21.00;17.50;;;;;3.52;90.16;98428.44;4892476;28;102045;-69
2023/02/22 00:06:48;;;;;;;;;23.75;20.25;;;;;3.50;89.32;98423.28;4892474;28;104009;-70
2023/02/22 00:09:20;;;;;;;;;15.75;13.00;;;;;3.51;90.25;98430.28;4891476;28;109596;-70
2023/02/22 00:11:47;;;;;;;;;25.25;24.50;;;;;3.45;90.30;98425.59;4888150;28;101956;-70
2023/02/22 00:14:19;;;;;;;;;25.25;16.25;;;;;3.48;90.02;98425.25;4886342;28;102092;-70
2023/02/22 00:16:46;;;;;;;;;16.00;15.00;;;;;3.54;90.36;98429.13;4890698;28;104083;-69
2023/02/22 00:19:13;;;;;;;;;11.50;9.50;;;;;3.59;90.50;98422.31;4890600;28;102294;-69
2023/02/22 00:21:40;;;;;;;;;11.25;9.00;;;;;3.64;89.71;98429.00;4886727;28;101947;-70
2023/02/22 00:24:21;;;;;;;;;7.00;4.25;;;;;3.68;89.92;98430.34;4861219;28;102447;-70
2023/02/22 00:26:51;;;;;;;;;16.00;11.75;;;;;3.68;88.92;98431.19;4888640;28;104296;-70
2023/02/22 00:29:18;;;;;;;;;25.75;20.00;;;;;3.68;88.52;98425.84;4888416;28;102127;-70
2023/02/22 00:31:45;;;;;;;;;15.00;12.00;;;;;3.74;88.31;98430.53;4885041;28;104105;-69
2023/02/22 00:34:13;;;;;;;;;11.50;10.00;;;;;3.79;88.01;98427.38;4889465;28;102206;-69
2023/02/22 00:36:49;;;;;;;;;7.75;6.25;;;;;3.84;88.50;98422.38;4883095;28;103962;-69
2023/02/22 00:39:17;;;;;;;;;12.50;7.00;;;;;3.87;87.85;98435.44;4891562;28;102602;-70
2023/02/22 00:41:44;;;;;;;;;7.25;6.00;;;;;3.88;87.89;98432.59;4886214;28;102370;-69
2023/02/22 00:44:11;;;;;;;;;6.00;6.00;;;;;3.92;87.41;98433.09;4893635;28;102016;-69
2023/02/22 00:46:38;;;;;;;;;7.00;5.50;;;;;3.94;88.13;98429.28;4891349;28;104309;-69
2023/02/22 00:49:05;;;;;;;;;6.00;3.00;;;;;3.94;87.11;98436.44;4890766;28;102284;-69
2023/02/22 00:51:32;;;;;;;;;8.75;7.25;;;;;3.95;87.13;98438.97;4889807;28;102311;-69
2023/02/22 00:54:00;;;;;;;;;11.75;7.00;;;;;3.99;87.48;98442.16;4891670;28;102380;-69
2023/02/22 00:56:27;;;;;;;;;8.75;7.00;;;;;3.96;87.53;98418.41;4888123;28;104024;-70
2023/02/22 00:58:54;;;;;;;;;5.50;5.00;;;;;4.02;86.96;98434.63;4892403;28;102110;-69
2023/02/22 01:01:22;;;;;;;;;6.75;6.00;;;;;4.03;86.71;98435.47;4889990;28;102496;-69
2023/02/22 01:03:50;;;;;;;;;8.00;7.00;;;;;4.02;86.94;98436.47;4891135;28;102044;-69
2023/02/22 01:06:17;;;;;;;;;4.25;4.00;;;;;3.99;87.07;98439.47;4893295;28;103920;-69
2023/02/22 01:08:45;;;;;;;;;5.00;5.00;;;;;3.99;87.18;98431.44;4888512;28;102343;-68
2023/02/22 01:11:14;;;;;;;;;6.00;5.75;;;;;3.94;86.75;98442.63;4890842;28;102240;-69
2023/02/22 01:13:44;;;;;;;;;7.75;6.75;;;;;3.92;86.46;98443.78;4890241;28;102006;-68
2023/02/22 01:16:11;;;;;;;;;3.00;2.25;;;;;3.84;86.88;98438.41;4888996;28;104230;-69
2023/02/22 01:18:38;;;;;;;;;3.00;2.75;;;;;3.81;87.08;98438.75;4872826;28;102064;-69
2023/02/22 01:21:05;;;;;;;;;3.00;2.00;;;;;3.74;87.17;98435.88;4889190;28;102097;-69
2023/02/22 01:23:32;;;;;;;;;3.75;2.00;;;;;3.72;87.69;98439.72;4890865;28;102430;-69
2023/02/22 01:25:59;;;;;;;;;2.25;2.00;;;;;3.71;88.41;98435.38;4890420;28;104556;-69
2023/02/22 01:28:27;;;;;;;;;4.25;2.50;;;;;3.66;88.35;98435.00;4892065;28;102197;-70
2023/02/22 01:30:54;;;;;;;;;5.50;5.00;;;;;3.63;88.34;98433.53;4885204;28;102911;-69
2023/02/22 01:33:22;;;;;;;;;2.50;2.50;;;;;3.62;87.69;98425.66;4891562;28;101974;-69
2023/02/22 01:35:50;;;;;;;;;5.50;5.00;;;;;3.58;88.14;98442.03;4886565;28;104034;-69
2023/02/22 01:38:17;;;;;;;;;4.00;2.75;;;;;3.54;88.10;98438.00;4888554;28;102098;-69
2023/02/22 01:40:48;;;;;;;;;3.00;3.00;;;;;3.51;88.74;98435.63;4887909;28;102182;-68
2023/02/22 01:43:23;;;;;;;;;2.00;1.00;;;;;3.47;89.14;98434.28;4886841;28;102045;-69
2023/02/22 01:45:53;;;;;;;;;7.00;4.50;;;;;3.45;88.98;98435.44;4889067;28;103972;-69
2023/02/22 01:48:32;;;;;;;;;2.00;2.00;;;;;3.45;88.81;98438.97;4885831;28;102403;-69
2023/02/22 01:51:23;;;;;;;;;5.50;4.00;;;;;3.45;90.05;98435.44;4878335;28;102114;-69
2023/02/22 01:54:08;;;;;;;;;3.00;2.00;;;;;3.43;89.54;98432.91;4891120;28;102508;-69
2023/02/22 01:56:40;;;;;;;;;5.00;4.00;;;;;3.41;88.94;98434.94;4878708;28;108845;-70
2023/02/22 01:59:11;;;;;;;;;2.50;2.00;;;;;3.36;88.64;98439.06;4882656;28;103285;-70
2023/02/22 02:01:41;;;;;;;;;5.50;5.25;;;;;3.32;88.95;98430.53;4888261;28;102213;-70
2023/02/22 02:04:14;;;;;;;;;3.00;2.75;;;;;3.27;89.02;98426.66;4872544;28;102272;-69
2023/02/22 02:06:41;;;;;;;;;3.50;2.75;;;;;3.22;89.62;98432.50;4879233;28;104409;-69
2023/02/22 02:09:40;;;;;;;;;5.00;2.25;;;;;3.15;88.92;98434.94;4876679;28;102174;-69
2023/02/22 02:12:36;;;;;;;;;3.25;2.75;;;;;3.08;89.13;98428.56;4878483;28;102385;-69
2023/02/22 02:15:33;;;;;;;;;4.00;4.00;;;;;2.88;89.81;98418.28;4886886;28;102434;-69
2023/02/22 02:18:15;;;;;;;;;8.00;7.00;;;;;2.86;91.68;98428.25;4869175;28;107788;-69
2023/02/22 02:21:01;;;;;;;;;8.25;7.25;;;;;2.87;90.99;98429.94;4895980;28;102260;-69
2023/02/22 02:24:07;;;;;;;;;5.75;5.00;;;;;2.82;90.54;98437.59;4875699;28;101978;-68
2023/02/22 02:27:15;;;;;;;;;6.75;5.00;;;;;2.80;91.70;98434.22;4875779;28;102360;-69
2023/02/22 02:30:24;;;;;;;;;3.50;3.00;;;;;2.75;90.75;98437.34;4882897;28;108621;-70
2023/02/22 02:33:05;;;;;;;;;7.00;5.00;;;;;2.73;92.30;98443.84;4770284;29;102587;-70
2023/02/22 02:35:50;;;;;;;;;7.00;3.50;;;;;2.74;92.40;98440.19;4776757;29;102559;-69
2023/02/22 02:38:33;;;;;;;;;5.75;3.00;;;;;2.75;91.95;98436.53;4849891;28;102561;-70
2023/02/22 02:41:15;;;;;;;;;9.00;7.00;;;;;2.70;91.39;98437.00;4886624;28;108670;-69
2023/02/22 02:43:53;;;;;;;;;6.50;6.25;;;;;2.65;90.65;98437.47;4860657;28;102881;-69
2023/02/22 02:46:30;;;;;;;;;7.00;5.50;;;;;2.59;90.97;98442.59;4868498;28;102229;-70
2023/02/22 02:49:04;;;;;;;;;8.50;4.50;;;;;2.43;91.68;98421.94;4872368;28;102277;-70
2023/02/22 02:51:37;;;;;;;;;6.00;4.00;;;;;2.58;92.06;98441.75;4873483;28;104027;-70
2023/02/22 02:54:06;;;;;;;;;5.00;4.50;;;;;2.60;92.73;98439.78;4871922;28;102272;-69
2023/02/22 02:56:34;;;;;;;;;5.75;5.75;;;;;2.60;92.07;98438.94;4871558;28;102428;-70
2023/02/22 02:59:01;;;;;;;;;8.75;6.25;;;;;2.57;91.56;98440.06;4858382;28;102241;-70
2023/02/22 03:01:56;;;;;;;;;5.00;4.00;;;;;2.56;91.34;98438.41;4868601;28;104006;-70
2023/02/22 03:04:54;;;;;;;;;4.25;3.50;;;;;2.59;92.58;98450.59;4864510;28;102377;-69
2023/02/22 03:07:59;;;;;;;;;5.50;3.25;;;;;2.62;92.98;98442.25;4813803;28;102103;-69
2023/02/22 03:10:49;;;;;;;;;22.25;16.00;;;;;2.68;94.31;98442.50;4865193;28;102349;-69
2023/02/22 03:13:29;;;;;;;;;18.75;14.75;;;;;2.65;93.12;98448.16;4861576;28;108793;-69
2023/02/22 03:16:02;;;;;;;;;13.25;12.75;;;;;2.58;93.26;98436.41;4868873;28;105770;-69
2023/02/22 03:18:58;;;;;;;;;16.25;9.25;;;;;2.57;92.66;98450.72;4867186;28;102000;-69
2023/02/22 03:21:42;;;;;;;;;11.25;9.00;;;;;2.51;92.84;98446.03;4870300;28;102017;-69
2023/02/22 03:24:24;;;;;;;;;14.00;13.50;;;;;2.41;93.64;98445.28;4849246;28;108520;-69
2023/02/22 03:27:02;;;;;;;;;17.25;14.50;;;;;2.36;93.83;98446.72;4864090;28;102498;-69
2023/02/22 03:29:34;;;;;;;;;28.33;24.33;;;;;2.27;94.87;98451.16;4867685;28;102144;-69
2023/02/22 03:32:06;;;;;;;;;18.25;15.50;;;;;2.34;95.87;98449.56;4870798;28;102482;-69
2023/02/22 03:34:40;;;;;;;;;16.75;16.75;;;;;2.37;95.67;98448.41;4877182;28;104189;-69
2023/02/22 03:37:15;;;;;;;;;5.25;3.00;;;;;2.43;95.58;98450.47;4871873;28;105503;-69
2023/02/22 03:39:45;;;;;;;;;10.50;7.00;;;;;2.46;94.72;98451.00;4864899;28;102883;-69
2023/02/22 03:42:29;;;;;;;;;9.50;8.50;;;;;2.45;94.80;98445.78;4883825;28;102512;-69
2023/02/22 03:44:59;;;;;;;;;6.00;4.00;;;;;2.48;94.83;98450.81;4890677;28;108757;-69
2023/02/22 03:47:38;;;;;;;;;9.00;9.00;;;;;2.47;94.23;98450.00;4891141;28;102016;-69
2023/02/22 03:50:15;;;;;;;;;8.75;6.00;;;;;2.45;93.53;98462.66;4891497;28;102304;-68
2023/02/22 03:52:43;;;;;;;;;9.75;6.00;;;;;2.31;94.03;98433.00;4891233;28;102364;-68
2023/02/22 03:55:12;;;;;;;;;5.25;5.00;;;;;2.45;94.32;98456.47;4891920;28;103994;-69
2023/02/22 03:57:48;;;;;;;;;9.25;7.50;;;;;2.44;92.87;98455.63;4891683;28;103367;-69
2023/02/22 04:00:21;;;;;;;;;6.50;5.00;;;;;2.46;93.38;98459.00;4892328;28;102612;-69
2023/02/22 04:02:48;;;;;;;;;6.50;5.25;;;;;2.46;93.72;98461.66;4893702;28;102347;-69
2023/02/22 04:09:16;;;;;;;;;10.00;6.75;;;;;2.44;94.02;98458.28;4892300;28;102034;-69
2023/02/22 04:11:44;;;;;;;;;9.50;8.00;;;;;2.45;93.42;98459.97;4873919;28;102227;-69
2023/02/22 04:14:12;;;;;;;;;4.00;3.00;;;;;2.46;94.50;98448.31;4891476;28;102084;-68
2023/02/22 04:16:39;;;;;;;;;10.25;6.50;;;;;2.46;93.77;98453.66;4891584;28;103997;-71
2023/02/22 04:19:06;;;;;;;;;9.25;9.00;;;;;2.47;94.26;98447.34;4892521;28;102066;-69
2023/02/22 04:21:33;;;;;;;;;5.75;5.00;;;;;2.50;94.94;98460.38;4890695;28;102424;-69
2023/02/22 04:24:00;;;;;;;;;3.00;3.00;;;;;2.53;94.54;98459.19;4890812;28;102666;-68
2023/02/22 04:26:27;;;;;;;;;12.00;6.00;;;;;2.50;93.99;98464.84;4889508;28;103980;-70
2023/02/22 04:28:54;;;;;;;;;11.25;9.50;;;;;2.53;95.12;98457.38;4872199;28;102250;-69
2023/02/22 04:31:21;;;;;;;;;10.00;8.25;;;;;2.55;95.05;98463.41;4887835;28;102216;-68
2023/02/22 04:33:48;;;;;;;;;12.00;11.00;;;;;2.57;94.24;98461.41;4891860;28;102417;-69
2023/02/22 04:36:15;;;;;;;;;15.75;12.25;;;;;2.61;94.30;98462.78;4889375;28;104026;-69
2023/02/22 04:38:43;;;;;;;;;9.75;8.00;;;;;2.52;94.95;98445.00;4890867;28;102386;-69
2023/02/22 04:41:10;;;;;;;;;6.25;5.75;;;;;2.62;94.63;98453.78;4888184;28;102170;-69
2023/02/22 04:43:37;;;;;;;;;12.50;9.50;;;;;2.65;94.45;98453.50;4893049;28;102299;-71
2023/02/22 04:46:04;;;;;;;;;9.75;6.75;;;;;2.66;94.54;98460.47;4889245;28;103858;-69
2023/02/22 04:48:31;;;;;;;;;9.50;8.50;;;;;2.65;95.39;98464.16;4888626;28;102503;-69
2023/02/22 04:50:58;;;;;;;;;7.00;6.00;;;;;2.66;95.16;98454.31;4887184;28;102335;-69
2023/02/22 04:53:25;;;;;;;;;11.00;10.50;;;;;2.68;94.72;98450.50;4894985;28;102211;-69
2023/02/22 04:55:52;;;;;;;;;9.50;7.00;;;;;2.70;94.88;98453.84;4888479;28;111826;-69
2023/02/22 04:58:19;;;;;;;;;22.25;15.50;;;;;2.64;94.38;98451.81;4887757;28;102332;-70
2023/02/22 05:00:46;;;;;;;;;12.00;12.00;;;;;2.63;94.53;98452.78;4892160;28;102475;-70
2023/02/22 05:03:13;;;;;;;;;8.25;7.00;;;;;2.67;94.25;98456.81;4892516;28;102585;-70
2023/02/22 05:05:40;;;;;;;;;19.00;17.00;;;;;2.69;94.40;98457.53;4890642;28;104005;-70
2023/02/22 05:08:07;;;;;;;;;20.50;18.50;;;;;2.68;94.96;98458.50;4889482;28;106300;-71
2023/02/22 05:10:34;;;;;;;;;18.00;14.50;;;;;2.68;93.24;98458.50;4891301;28;102482;-71
2023/02/22 05:13:02;;;;;;;;;11.75;10.25;;;;;2.67;93.89;98456.81;4888760;28;102283;-69
2023/02/22 05:15:29;;;;;;;;;15.75;14.00;;;;;2.67;93.88;98467.50;4889484;28;104137;-70
2023/02/22 05:17:56;;;;;;;;;8.50;7.00;;;;;2.63;93.91;98466.13;4892598;28;102245;-69
2023/02/22 05:20:28;;;;;;;;;9.75;9.50;;;;;2.63;94.04;98463.47;4890888;28;102160;-70
2023/02/22 05:22:59;;;;;;;;;13.25;10.00;;;;;2.64;93.93;98459.81;4892685;28;102068;-69
2023/02/22 05:25:26;;;;;;;;;37.00;30.67;;;;;2.56;95.18;98465.09;4885856;28;107867;-69
2023/02/22 05:27:56;;;;;;;;;67.00;53.67;;;;;2.39;96.48;98462.41;4892451;28;102281;-69
2023/02/22 05:30:30;;;;;;;;;62.33;46.00;;;;;2.43;96.69;98467.28;4886273;28;102012;-69
2023/02/22 05:32:58;;;;;;;;;54.00;38.33;;;;;2.52;96.68;98466.38;4891335;28;108149;-70
2023/02/22 05:35:27;;;;;;;;;58.33;41.33;;;;;2.47;96.13;98475.84;4890166;28;108432;-70
2023/02/22 05:37:55;;;;;;;;;39.00;33.00;;;;;2.52;96.72;98474.38;4885618;28;102488;-70
2023/02/22 05:40:25;;;;;;;;;44.00;35.67;;;;;2.52;95.93;98479.72;4890429;28;102283;-69
2023/02/22 05:42:52;;;;;;;;;33.67;30.67;;;;;2.55;96.92;98473.25;4869854;28;103861;-69
2023/02/22 05:45:22;;;;;;;;;30.00;18.25;;;;;2.62;96.91;98479.63;4865886;28;104016;-69
2023/02/22 05:47:50;;;;;;;;;40.00;31.33;;;;;2.57;95.18;98476.56;4856965;28;102310;-70
2023/02/22 05:50:18;;;;;;;;;62.67;47.00;;;;;2.52;96.31;98485.03;4868181;28;102509;-69
2023/02/22 05:52:47;;;;;;;;;62.00;45.33;;;;;2.54;96.39;98483.06;4869315;28;103186;-69
2023/02/22 05:55:16;;;;;;;;;43.67;38.00;;;;;2.58;97.57;98479.09;4870087;28;104091;-69
2023/02/22 05:57:43;;;;;;;;;34.67;30.00;;;;;2.66;96.57;98481.84;4861978;28;102486;-69
2023/02/22 06:00:17;;;;;;;;;36.67;35.67;;;;;2.66;94.36;98489.84;4862377;28;102347;-70
2023/02/22 06:02:44;;;;;;;;;34.67;30.00;;;;;2.70;95.29;98493.88;4865571;28;102505;-70
2023/02/22 06:05:11;;;;;;;;;24.33;22.00;;;;;2.68;95.06;98476.34;4872039;28;104815;-70
2023/02/22 06:07:38;;;;;;;;;21.75;18.75;;;;;2.83;94.58;98498.84;4862097;28;106816;-70
2023/02/22 06:10:05;;;;;;;;;17.75;14.50;;;;;2.89;95.80;98497.38;4870465;28;102260;-70
2023/02/22 06:12:32;;;;;;;;;21.75;18.25;;;;;2.93;95.09;98502.25;4869381;28;102357;-70
2023/02/22 06:14:59;;;;;;;;;43.67;37.00;;;;;2.86;94.27;98500.34;4873446;28;104026;-69
2023/02/22 06:17:26;;;;;;;;;31.33;25.33;;;;;2.90;94.75;98504.38;4866391;28;102476;-68
2023/02/22 06:19:53;;;;;;;;;30.75;22.50;;;;;2.92;96.05;98508.59;4874352;28;103403;-68
2023/02/22 06:22:20;;;;;;;;;17.00;14.50;;;;;3.01;95.68;98520.19;4869531;28;102140;-68
2023/02/22 06:24:46;;;;;;;;;35.67;30.33;;;;;3.03;95.68;98513.69;4871817;28;104004;-69
2023/02/22 06:27:13;;;;;;;;;28.25;24.00;;;;;3.12;95.95;98517.25;4875849;28;102366;-69
2023/02/22 06:29:45;;;;;;;;;15.75;14.00;;;;;3.20;95.61;98527.16;4869498;28;102330;-68
2023/02/22 06:32:13;;;;;;;;;18.75;16.50;;;;;3.27;95.21;98526.38;4870546;28;102511;-68
2023/02/22 06:34:40;;;;;;;;;30.25;22.25;;;;;3.29;94.67;98527.03;4868689;28;104087;-68
2023/02/22 06:37:07;;;;;;;;;23.00;22.50;;;;;3.32;94.53;98518.72;4864633;28;102286;-67
2023/02/22 06:39:34;;;;;;;;;10.00;10.00;;;;;3.36;94.35;98537.94;4871962;28;102527;-69
2023/02/22 06:42:01;;;;;;;;;15.25;13.50;;;;;3.40;93.86;98536.63;4884027;28;102941;-69
2023/02/22 06:44:28;;;;;;;;;27.75;23.75;;;;;3.39;94.20;98540.28;4892324;28;104382;-70
2023/02/22 06:46:55;;;;;;;;;26.00;17.50;;;;;3.45;94.32;98548.53;4904601;28;102295;-68
2023/02/22 06:49:22;;;;;;;;;24.00;21.00;;;;;3.54;94.92;98549.41;4895703;28;102065;-68
2023/02/22 06:51:49;;;;;;;;;15.50;12.00;;;;;3.62;94.31;98548.63;4889646;28;102346;-69
2023/02/22 06:54:16;;;;;;;;;10.00;8.50;;;;;3.69;94.16;98545.19;4896481;28;104031;-69
2023/02/22 06:56:44;;;;;;;;;9.25;6.00;;;;;3.76;93.18;98545.38;4898553;28;102455;-68
2023/02/22 06:59:10;;;;;;;;;11.00;9.75;;;;;3.83;93.28;98546.38;4894900;28;102285;-68
2023/02/22 07:01:41;;;;;;;;;6.25;4.50;;;;;3.90;92.91;98553.63;4895567;28;102697;-69
2023/02/22 07:04:08;;;;;;;;;5.25;4.50;;;;;3.95;92.44;98555.81;4894317;28;104011;-69
2023/02/22 07:06:36;;;;;;;;;6.75;5.50;;;;;4.02;92.03;98556.84;4897322;28;102670;-69
2023/02/22 07:09:03;;;;;;;;;8.50;6.00;;;;;4.00;91.20;98550.84;4894696;28;102277;-69
2023/02/22 07:11:30;;;;;;;;;8.25;8.25;;;;;4.08;90.66;98556.22;4894905;28;102386;-70
2023/02/22 07:13:57;;;;;;;;;12.75;12.50;;;;;4.12;90.74;98562.91;4894578;28;103662;-69
2023/02/22 07:16:24;;;;;;;;;6.50;5.50;;;;;4.21;90.67;98567.28;4896725;28;102381;-68
2023/02/22 07:18:51;;;;;;;;;7.00;6.00;;;;;4.29;89.91;98558.44;4893701;28;101952;-68
2023/02/22 07:21:18;;;;;;;;;5.00;4.50;;;;;4.35;89.80;98564.00;4891689;28;102227;-67
2023/02/22 07:23:53;;;;;;;;;1.00;1.00;;;;;4.38;88.78;98555.63;4890780;28;103740;-68
2023/02/22 07:26:22;;;;;;;;;5.00;5.00;;;;;4.49;88.43;98568.72;4884410;28;103282;-70
2023/02/22 07:28:49;;;;;;;;;5.25;4.00;;;;;4.54;88.92;98557.53;4875455;28;102840;-68
2023/02/22 07:31:16;;;;;;;;;4.00;3.25;;;;;4.59;88.49;98560.56;4875045;28;102407;-68
2023/02/22 07:33:48;;;;;;;;;3.50;3.00;;;;;4.66;87.75;98566.06;4888733;28;104019;-69
2023/02/22 07:36:16;;;;;;;;;2.00;0.00;;;;;4.71;87.58;98558.38;4892408;28;102103;-69
2023/02/22 07:38:44;;;;;;;;;5.25;4.25;;;;;4.76;87.68;98550.69;4895502;28;102119;-69
2023/02/22 07:41:12;;;;;;;;;5.75;5.75;;;;;4.84;87.07;98562.25;4902275;28;102041;-69
2023/02/22 07:43:38;;;;;;;;;7.00;6.50;;;;;4.92;86.79;98564.09;4890535;28;103975;-69
2023/02/22 07:46:05;;;;;;;;;10.25;7.00;;;;;4.97;86.17;98561.75;4894826;28;102342;-69
2023/02/22 07:48:32;;;;;;;;;6.00;4.75;;;;;5.03;86.00;98563.78;4893761;28;102406;-69
2023/02/22 07:50:59;;;;;;;;;12.00;11.00;;;;;5.11;85.53;98560.25;4894827;28;102321;-70
2023/02/22 07:53:30;;;;;;;;;17.75;13.00;;;;;5.09;84.42;98552.38;4895380;28;104233;-69
2023/02/22 07:55:58;;;;;;;;;11.00;9.25;;;;;5.13;84.78;98560.94;4891509;28;102094;-69
2023/02/22 07:58:27;;;;;;;;;10.00;8.75;;;;;5.20;85.39;98562.78;4893180;28;102392;-69
2023/02/22 08:00:54;;;;;;;;;11.75;11.25;;;;;5.18;85.69;98555.91;4896614;28;102285;-68
2023/02/22 08:03:24;;;;;;;;;9.50;7.50;;;;;5.32;84.66;98565.94;4890292;28;103937;-68
2023/02/22 08:05:56;;;;;;;;;8.50;6.75;;;;;5.19;84.35;98526.25;4893420;28;102418;-69
2023/02/22 08:08:23;;;;;;;;;6.50;5.00;;;;;5.41;84.20;98554.19;4892480;28;102290;-67
2023/02/22 08:10:51;;;;;;;;;33.50;26.50;;;;;5.56;83.88;98565.91;4894884;28;102493;-68
2023/02/22 08:13:20;;;;;;;;;29.25;20.00;;;;;5.64;84.26;98563.22;4893342;28;104489;-69
2023/02/22 08:15:50;;;;;;;;;13.00;11.00;;;;;5.74;83.51;98565.72;4893408;28;102150;-69
2023/02/22 08:18:19;;;;;;;;;12.00;11.00;;;;;5.84;82.84;98569.06;4883729;28;103101;-69
2023/02/22 08:20:48;;;;;;;;;14.25;13.25;;;;;5.89;82.05;98565.88;4894953;28;102379;-70
2023/02/22 08:23:16;;;;;;;;;10.25;8.00;;;;;5.98;82.69;98565.69;4892923;28;103705;-69
2023/02/22 08:25:43;;;;;;;;;10.50;7.75;;;;;6.08;81.71;98560.94;4892036;28;102051;-69
2023/02/22 08:28:14;;;;;;;;;10.25;7.50;;;;;6.12;79.19;98567.63;4891803;28;102355;-69
2023/02/22 08:30:45;;;;;;;;;31.25;25.00;;;;;5.83;80.91;98537.84;4889920;28;102460;-69
2023/02/22 08:33:15;;;;;;;;;25.25;19.75;;;;;6.14;80.26;98565.63;4893811;28;104073;-69
2023/02/22 08:35:42;;;;;;;;;19.00;16.00;;;;;6.23;79.82;98563.72;4895065;28;102552;-69
2023/02/22 08:38:22;;;;;;;;;12.00;10.00;;;;;6.35;78.79;98569.56;4893437;28;102241;-69
2023/02/22 08:40:50;;;;;;;;;25.00;20.00;;;;;6.45;77.92;98573.69;4892693;28;102771;-69
2023/02/22 08:43:18;;;;;;;;;16.00;13.00;;;;;6.55;77.94;98578.84;4905346;28;103998;-69
2023/02/22 08:45:46;;;;;;;;;12.75;12.00;;;;;6.56;76.94;98564.41;4896053;28;101952;-71
2023/02/22 08:48:14;;;;;;;;;16.50;12.50;;;;;6.60;75.53;98571.09;4897162;28;102102;-69
2023/02/22 08:50:43;;;;;;;;;50.50;39.75;;;;;6.67;76.44;98582.81;4898650;28;102532;-68
2023/02/22 08:53:12;;;;;;;;;30.50;26.25;;;;;6.53;74.17;98591.66;4891606;28;104127;-67
2023/02/22 08:55:40;;;;;;;;;36.75;31.25;;;;;6.61;76.22;98578.16;4894521;28;104521;-68
2023/02/22 08:58:08;;;;;;;;;21.50;18.25;;;;;6.63;74.27;98576.13;4900093;28;102160;-68
2023/02/22 09:00:37;;;;;;;;;22.00;17.25;;;;;6.76;75.12;98573.69;4879879;28;102353;-69
2023/02/22 09:03:12;;;;;;;;;14.25;13.25;;;;;6.89;74.39;98573.94;4895385;28;104521;-69
2023/02/22 09:05:40;;;;;;;;;13.25;8.75;;;;;6.93;71.84;98567.22;4891145;28;101981;-68
2023/02/22 09:08:07;;;;;;;;;8.75;7.00;;;;;6.90;71.12;98556.81;4904420;28;102020;-68
2023/02/22 09:10:35;;;;;;;;;17.50;12.50;;;;;6.93;72.18;98583.34;4897406;28;102334;-68
2023/02/22 09:13:03;;;;;;;;;15.25;13.50;;;;;6.71;71.47;98565.31;4884595;28;104104;-69
2023/02/22 09:15:30;;;;;;;;;22.25;17.50;;;;;6.68;74.15;98584.50;4883686;28;102077;-69
2023/02/22 09:17:58;;;;;;;;;13.75;12.25;;;;;6.89;72.82;98578.50;4891119;28;102403;-68
2023/02/22 09:20:25;;;;;;;;;20.25;15.75;;;;;7.00;71.38;98584.28;4895431;28;101997;-68
2023/02/22 09:22:53;;;;;;;;;19.00;15.25;;;;;6.90;73.73;98586.38;4888183;28;104138;-68
2023/02/22 09:25:21;;;;;;;;;12.00;9.50;;;;;7.01;70.68;98583.28;4887936;28;102611;-68
2023/02/22 09:27:50;;;;;;;;;15.00;10.25;;;;;7.16;71.16;98584.16;4889993;28;102364;-69
2023/02/22 09:30:30;;;;;;;;;14.50;11.75;;;;;7.07;69.21;98584.38;4903498;28;102759;-68
2023/02/22 09:33:01;;;;;;;;;9.75;8.00;;;;;7.27;68.75;98579.38;4892419;28;108734;-68
2023/02/22 09:35:28;;;;;;;;;9.00;6.75;;;;;7.20;68.37;98547.00;4888949;28;102327;-68
2023/02/22 09:37:57;;;;;;;;;20.25;17.50;;;;;6.97;67.96;98579.28;4878023;28;102458;-68
2023/02/22 09:40:28;;;;;;;;;22.50;20.50;;;;;6.95;71.11;98581.28;4890938;28;108867;-69
2023/02/22 09:43:23;;;;;;;;;21.00;18.75;;;;;6.76;68.64;98584.44;4889183;28;108926;-68
2023/02/22 09:46:21;;;;;;;;;19.50;17.50;;;;;6.80;71.64;98588.44;4881575;28;102230;-69
2023/02/22 09:49:00;;;;;;;;;16.50;13.50;;;;;7.02;68.90;98573.38;4891775;28;102855;-70
2023/02/22 09:51:41;;;;;;;;;24.50;21.75;;;;;7.03;71.52;98569.63;4883339;28;102083;-69
2023/02/22 09:54:23;;;;;;;;;17.75;16.75;;;;;7.05;68.81;98581.91;4893540;28;108435;-68
2023/02/22 09:56:54;;;;;;;;;17.50;13.00;;;;;7.11;70.00;98570.41;4884068;28;102341;-70
2023/02/22 09:59:27;;;;;;;;;20.00;15.50;;;;;7.07;67.44;98574.47;4895480;28;102268;-69
2023/02/22 10:02:18;;;;;;;;;31.50;24.25;;;;;6.68;69.06;98573.75;4901567;28;102105;-68
2023/02/22 10:05:08;;;;;;;;;25.75;21.75;;;;;6.66;66.34;98571.22;4889408;28;108617;-69
2023/02/22 10:07:58;;;;;;;;;14.75;13.50;;;;;6.94;69.63;98576.09;4877725;28;103455;-69
2023/02/22 10:10:32;;;;;;;;;11.75;11.50;;;;;7.21;67.62;98566.63;4893509;28;102442;-68
2023/02/22 10:13:15;;;;;;;;;9.25;7.75;;;;;7.42;66.88;98566.81;4901338;28;103149;-68
2023/02/22 10:16:07;;;;;;;;;8.25;7.50;;;;;7.45;67.29;98569.13;4885018;28;108234;-68
2023/02/22 10:19:21;;;;;;;;;21.25;18.25;;;;;7.01;66.13;98571.69;4885099;28;102481;-68
2023/02/22 10:22:03;;;;;;;;;26.50;21.25;;;;;7.12;68.79;98565.88;4881959;28;103035;-68
2023/02/22 10:24:49;;;;;;;;;20.25;15.75;;;;;7.34;66.54;98565.00;4884907;28;102234;-69
2023/02/22 10:27:27;;;;;;;;;18.75;14.25;;;;;7.14;66.98;98562.00;4887688;28;104216;-69
2023/02/22 10:30:04;;;;;;;;;20.25;13.75;;;;;7.38;65.79;98560.13;4895254;28;103079;-69
2023/02/22 10:33:21;;;;;;;;;26.00;21.75;;;;;7.31;64.34;98567.22;4893918;28;102317;-69
2023/02/22 10:35:50;;;;;;;;;26.00;17.50;;;;;6.93;64.21;98569.91;4883112;28;102289;-68
2023/02/22 10:38:29;;;;;;;;;14.00;12.00;;;;;7.17;66.21;98558.09;4897692;28;104014;-68
2023/02/22 10:41:07;;;;;;;;;24.50;20.25;;;;;7.01;66.80;98564.47;4891734;28;103829;-68
2023/02/22 10:43:40;;;;;;;;;21.75;18.75;;;;;7.29;64.04;98563.91;4889398;28;102270;-68
2023/02/22 10:46:13;;;;;;;;;14.50;12.25;;;;;7.31;64.41;98553.78;4890088;28;101973;-68
2023/02/22 10:48:44;;;;;;;;;14.00;10.25;;;;;7.48;63.23;98555.31;4876081;28;103787;-68
2023/02/22 10:51:12;;;;;;;;;18.00;17.25;;;;;7.37;62.32;98553.91;4892507;28;102415;-68
2023/02/22 10:53:39;;;;;;;;;19.00;16.25;;;;;7.17;63.10;98540.13;4895928;28;102451;-69
2023/02/22 10:56:21;;;;;;;;;17.00;12.50;;;;;7.29;62.90;98553.16;4895786;28;102229;-69
2023/02/22 10:58:54;;;;;;;;;8.00;7.75;;;;;7.28;63.02;98559.53;4889374;28;104286;-69
2023/02/22 11:01:25;;;;;;;;;18.75;16.25;;;;;7.02;63.85;98563.44;4893449;28;102464;-69
2023/02/22 11:04:16;;;;;;;;;17.75;13.00;;;;;6.71;62.99;98565.31;4889082;28;102346;-69
2023/02/22 11:06:47;;;;;;;;;16.75;13.75;;;;;6.76;63.92;98559.41;4893198;28;102359;-69
2023/02/22 11:09:22;;;;;;;;;13.25;8.00;;;;;6.78;63.89;98566.28;4884497;28;103996;-69
2023/02/22 11:12:07;;;;;;;;;12.25;8.50;;;;;6.84;62.88;98554.00;4887094;28;103982;-69
2023/02/22 11:14:34;;;;;;;;;11.00;8.00;;;;;6.85;64.49;98553.81;4889933;28;102436;-69
2023/02/22 11:17:06;;;;;;;;;19.00;12.75;;;;;6.66;64.38;98548.91;4906711;28;102423;-70
2023/02/22 11:19:37;;;;;;;;;15.25;15.25;;;;;6.45;64.66;98557.59;4891659;28;104056;-70
2023/02/22 11:22:04;;;;;;;;;16.25;13.75;;;;;6.66;64.60;98548.91;4875134;28;102566;-70
2023/02/22 11:24:31;;;;;;;;;9.75;8.50;;;;;6.86;64.35;98552.81;4881375;28;102351;-68
2023/02/22 11:27:37;;;;;;;;;14.25;9.75;;;;;7.07;63.70;98547.59;4902180;28;102323;-68
2023/02/22 11:30:31;;;;;;;;;9.00;8.75;;;;;7.08;62.56;98543.06;4898025;28;108927;-69
2023/02/22 11:33:05;;;;;;;;;19.50;17.00;;;;;6.58;63.55;98541.72;4897419;28;101954;-69
2023/02/22 11:35:36;;;;;;;;;13.00;12.00;;;;;6.63;62.61;98543.88;4899947;28;102151;-69
2023/02/22 11:38:14;;;;;;;;;13.00;10.25;;;;;6.75;62.50;98545.16;4897816;28;104265;-69
2023/02/22 11:40:43;;;;;;;;;11.00;9.25;;;;;7.05;65.17;98533.50;4891059;28;103721;-68
2023/02/22 11:43:18;;;;;;;;;13.25;8.00;;;;;7.32;61.94;98539.34;4893532;28;102235;-69
2023/02/22 11:46:19;;;;;;;;;15.00;12.00;;;;;7.01;63.14;98537.56;4891333;28;104834;-68
2023/02/22 11:49:07;;;;;;;;;21.25;17.75;;;;;6.71;62.01;98541.13;4870741;28;102065;-70
2023/02/22 11:51:41;;;;;;;;;14.25;12.50;;;;;7.03;62.89;98553.50;4886063;28;108953;-70
2023/02/22 11:54:30;;;;;;;;;10.00;9.00;;;;;7.26;63.03;98540.03;4890868;28;102176;-69